createdAt,value
2017-11-22T13:31:12.223Z,16.20
2017-11-22T13:33:39.797Z,16.20
2017-11-22T13:36:08.110Z,15.80
2017-11-22T13:38:35.717Z,15.80
2017-11-22T13:41:03.293Z,15.80
2017-11-22T13:43:31.622Z,15.70
2017-11-22T13:45:59.176Z,15.70
2017-11-22T13:48:26.741Z,15.70
2017-11-22T13:50:54.289Z,15.70
2017-11-22T13:53:21.823Z,15.60
2017-11-22T13:55:50.141Z,15.50
2017-11-22T13:58:17.699Z,15.50
2017-11-22T14:00:45.246Z,15.50
2017-11-22T14:03:12.830Z,15.30
2017-11-22T14:05:40.430Z,15.40
2017-11-22T14:08:08.796Z,15.40
2017-11-22T14:10:36.360Z,15.40
2017-11-22T14:13:03.941Z,15.40
2017-11-22T14:15:32.294Z,15.20
2017-11-22T14:17:59.874Z,15.20
2017-11-22T14:20:28.207Z,15.40
2017-11-22T14:22:55.766Z,15.40
2017-11-22T14:25:23.380Z,15.40
2017-11-22T14:27:51.708Z,15.40
2017-11-22T14:30:19.290Z,15.40
2017-11-22T14:32:46.860Z,15.30
2017-11-22T14:35:14.467Z,15.20
2017-11-22T14:37:42.023Z,15.20
2017-11-22T14:40:09.622Z,15.00
2017-11-22T14:42:37.176Z,14.80
2017-11-22T14:45:04.751Z,14.70
2017-11-22T14:47:32.306Z,14.60
2017-11-22T14:49:59.862Z,14.50
2017-11-22T14:52:27.462Z,14.30
2017-11-22T14:54:55.811Z,13.90
2017-11-22T14:57:23.372Z,13.90
2017-11-22T14:59:50.943Z,13.70
2017-11-22T15:02:18.515Z,13.50
2017-11-22T15:04:46.858Z,13.20
2017-11-22T15:07:14.451Z,13.20
2017-11-22T15:09:42.800Z,12.90
2017-11-22T15:12:10.396Z,12.80
2017-11-22T15:14:38.759Z,12.60
2017-11-22T15:17:07.134Z,12.40
2017-11-22T15:19:34.720Z,12.40
2017-11-22T15:22:03.070Z,12.10
2017-11-22T15:24:30.648Z,12.10
2017-11-22T15:26:58.974Z,11.80
2017-11-22T15:29:26.602Z,11.80
2017-11-22T15:31:54.199Z,11.70
2017-11-22T15:34:21.765Z,11.50
2017-11-22T15:36:49.362Z,11.40
2017-11-22T15:39:17.692Z,11.20
2017-11-22T15:41:45.251Z,11.20
2017-11-22T15:44:12.869Z,11.00
2017-11-22T15:46:41.206Z,10.70
2017-11-22T15:49:08.788Z,10.70
2017-11-22T15:51:36.407Z,10.60
2017-11-22T15:54:03.974Z,10.50
2017-11-22T15:56:31.535Z,10.40
2017-11-22T15:59:00.132Z,10.30
2017-11-22T16:01:27.730Z,10.20
2017-11-22T16:03:56.090Z,9.90
2017-11-22T16:06:23.674Z,9.90
2017-11-22T16:08:52.010Z,9.90
2017-11-22T16:11:19.615Z,9.90
2017-11-22T16:13:48.175Z,9.60
2017-11-22T16:16:15.764Z,9.60
2017-11-22T16:18:44.158Z,9.40
2017-11-22T16:21:12.502Z,9.30
2017-11-22T16:23:40.094Z,9.30
2017-11-22T16:26:07.986Z,9.30
2017-11-22T16:28:35.547Z,9.10
2017-11-22T16:31:03.903Z,8.90
2017-11-22T16:33:31.462Z,8.90
2017-11-22T16:35:59.129Z,8.90
2017-11-22T16:38:26.711Z,8.90
2017-11-22T16:40:54.262Z,9.00
2017-11-22T16:43:21.825Z,8.90
2017-11-22T16:45:49.390Z,8.80
2017-11-22T16:48:16.963Z,8.80
2017-11-22T16:50:44.551Z,8.70
2017-11-22T16:53:12.126Z,8.50
2017-11-22T16:55:40.483Z,8.30
2017-11-22T16:58:08.168Z,8.30
2017-11-22T17:00:35.741Z,8.20
2017-11-22T17:03:05.216Z,8.00
2017-11-22T17:05:32.778Z,8.00
2017-11-22T17:08:00.320Z,8.00
2017-11-22T17:10:28.693Z,7.90
2017-11-22T17:12:56.266Z,7.90
2017-11-22T17:15:23.861Z,7.90
2017-11-22T17:17:51.450Z,7.80
2017-11-22T17:20:19.063Z,7.80
2017-11-22T17:22:46.654Z,7.80
2017-11-22T17:25:14.236Z,7.80
2017-11-22T17:27:42.569Z,7.70
2017-11-22T17:30:10.146Z,7.70
2017-11-22T17:32:37.745Z,7.60
2017-11-22T17:35:05.337Z,7.50
2017-11-22T17:37:32.913Z,7.60
2017-11-22T17:40:00.525Z,7.60
2017-11-22T17:42:28.116Z,7.40
2017-11-22T17:44:55.706Z,7.40
2017-11-22T17:47:23.266Z,7.30
2017-11-22T17:49:50.880Z,7.20
2017-11-22T17:52:18.681Z,7.20
2017-11-22T17:54:46.353Z,7.10
2017-11-22T17:57:13.919Z,7.00
2017-11-22T17:59:41.489Z,7.00
2017-11-22T18:02:09.847Z,6.90
2017-11-22T18:04:37.426Z,6.90
2017-11-22T18:07:04.978Z,6.90
2017-11-22T18:09:32.583Z,6.90
2017-11-22T18:12:00.142Z,6.80
2017-11-22T18:14:27.717Z,6.80
2017-11-22T18:16:55.386Z,6.70
2017-11-22T18:19:22.992Z,6.80
2017-11-22T18:21:50.540Z,6.80
2017-11-22T18:24:18.133Z,6.80
2017-11-22T18:26:46.641Z,6.70
2017-11-22T18:29:14.346Z,6.70
2017-11-22T18:31:43.429Z,6.60
2017-11-22T18:34:11.004Z,6.60
2017-11-22T18:36:38.589Z,6.60
2017-11-22T18:39:06.948Z,6.50
2017-11-22T18:41:34.655Z,6.50
2017-11-22T18:44:02.240Z,6.40
2017-11-22T18:46:29.837Z,6.40
2017-11-22T18:48:57.603Z,6.40
2017-11-22T18:51:26.012Z,6.40
2017-11-22T18:53:54.009Z,6.30
2017-11-22T18:56:21.611Z,6.20
2017-11-22T18:58:49.173Z,6.20
2017-11-22T19:01:17.624Z,6.20
2017-11-22T19:03:45.265Z,6.20
2017-11-22T19:06:14.681Z,6.10
2017-11-22T19:08:42.479Z,6.10
2017-11-22T19:11:12.140Z,6.00
2017-11-22T19:13:40.669Z,6.00
2017-11-22T19:16:08.607Z,6.00
2017-11-22T19:18:36.820Z,6.00
2017-11-22T19:21:06.400Z,5.90
2017-11-22T19:23:34.662Z,5.90
2017-11-22T19:26:02.893Z,5.80
2017-11-22T19:28:30.956Z,5.80
2017-11-22T19:31:00.327Z,5.70
2017-11-22T19:33:29.382Z,5.60
2017-11-22T19:35:58.852Z,5.50
2017-11-22T19:38:26.564Z,5.50
2017-11-22T19:40:54.176Z,5.50
2017-11-22T19:43:22.185Z,5.50
2017-11-22T19:45:50.489Z,5.50
2017-11-22T19:48:20.444Z,5.50
2017-11-22T19:50:48.809Z,5.50
2017-11-22T19:53:17.197Z,5.40
2017-11-22T19:55:45.963Z,5.40
2017-11-22T19:58:13.654Z,5.40
2017-11-22T20:00:42.039Z,5.40
2017-11-22T20:03:10.119Z,5.30
2017-11-22T20:05:38.090Z,5.30
2017-11-22T20:08:18.673Z,5.20
2017-11-22T20:10:48.260Z,5.20
2017-11-22T20:13:17.338Z,5.20
2017-11-22T20:15:47.466Z,5.10
2017-11-22T20:18:16.273Z,5.10
2017-11-22T20:20:45.281Z,5.10
2017-11-22T20:23:13.470Z,5.00
2017-11-22T20:25:42.608Z,5.00
2017-11-22T20:28:11.480Z,5.00
2017-11-22T20:30:40.951Z,4.90
2017-11-22T20:33:09.415Z,4.90
2017-11-22T20:35:38.142Z,4.90
2017-11-22T20:38:05.717Z,4.80
2017-11-22T20:40:34.060Z,4.80
2017-11-22T20:43:02.889Z,4.80
2017-11-22T20:45:31.917Z,4.70
2017-11-22T20:47:59.881Z,4.70
2017-11-22T20:50:28.189Z,4.60
2017-11-22T20:52:56.257Z,4.60
2017-11-22T20:55:24.931Z,4.50
2017-11-22T20:57:53.710Z,4.40
2017-11-22T21:00:22.100Z,4.40
2017-11-22T21:02:51.066Z,4.40
2017-11-22T21:05:19.704Z,4.40
2017-11-22T21:07:47.311Z,4.30
2017-11-22T21:10:15.431Z,4.30
2017-11-22T21:12:44.270Z,4.20
2017-11-22T21:15:12.744Z,4.20
2017-11-22T21:17:42.651Z,4.20
2017-11-22T21:20:10.915Z,4.20
2017-11-22T21:22:38.711Z,4.30
2017-11-22T21:25:07.749Z,4.10
2017-11-22T21:27:36.152Z,4.10
2017-11-22T21:30:04.154Z,4.10
2017-11-22T21:32:32.445Z,4.10
2017-11-22T21:35:00.534Z,4.20
2017-11-22T21:37:28.943Z,4.20
2017-11-22T21:39:56.745Z,4.10
2017-11-22T21:42:25.398Z,4.20
2017-11-22T21:44:53.834Z,4.20
2017-11-22T21:47:22.613Z,4.20
2017-11-22T21:49:51.383Z,4.10
2017-11-22T21:52:20.024Z,4.10
2017-11-22T21:54:47.851Z,4.10
2017-11-22T21:57:15.705Z,4.00
2017-11-22T21:59:43.468Z,4.10
2017-11-22T22:02:11.028Z,4.10
2017-11-22T22:04:38.872Z,4.00
2017-11-22T22:07:07.784Z,4.00
2017-11-22T22:09:36.046Z,4.00
2017-11-22T22:12:04.279Z,4.00
2017-11-22T22:14:33.181Z,3.80
2017-11-22T22:17:01.986Z,3.80
2017-11-22T22:19:30.079Z,3.80
2017-11-22T22:21:57.762Z,3.80
2017-11-22T22:24:25.339Z,3.90
2017-11-22T22:26:52.919Z,3.80
2017-11-22T22:29:21.270Z,3.70
2017-11-22T22:31:48.833Z,3.70
2017-11-22T22:34:16.387Z,3.70
2017-11-22T22:36:44.000Z,3.70
2017-11-22T22:39:12.320Z,3.60
2017-11-22T22:41:39.868Z,3.60
2017-11-22T22:44:07.416Z,3.70
2017-11-22T22:46:34.993Z,3.70
2017-11-22T22:49:02.546Z,3.70
2017-11-22T22:51:30.096Z,3.60
2017-11-22T22:53:57.666Z,3.60
2017-11-22T22:56:25.224Z,3.50
2017-11-22T22:58:52.776Z,3.50
2017-11-22T23:01:20.343Z,3.50
2017-11-22T23:03:47.903Z,3.50
2017-11-22T23:06:15.471Z,3.40
2017-11-22T23:08:43.037Z,3.40
2017-11-22T23:11:10.603Z,3.40
2017-11-22T23:13:38.186Z,3.30
2017-11-22T23:16:05.740Z,3.30
2017-11-22T23:18:33.306Z,3.30
2017-11-22T23:21:00.894Z,3.30
2017-11-22T23:23:29.246Z,3.30
2017-11-22T23:25:56.834Z,3.30
2017-11-22T23:28:25.197Z,3.20
2017-11-22T23:30:52.739Z,3.20
2017-11-22T23:33:20.295Z,3.20
2017-11-22T23:35:47.861Z,3.10
2017-11-22T23:38:15.416Z,3.20
2017-11-22T23:40:43.019Z,3.10
2017-11-22T23:43:11.343Z,3.00
2017-11-22T23:45:38.928Z,3.00
2017-11-22T23:48:06.506Z,3.10
2017-11-22T23:50:34.864Z,3.00
2017-11-22T23:53:02.419Z,3.00
2017-11-22T23:55:29.977Z,3.00
2017-11-22T23:57:57.549Z,3.00
